Time;durP1;ratioP1;P1;durP2;ratioP2;P2;SDS_P1;SDS_P2;PMS_P1;PMS_P2;Temp;Humidity;BMP_temperature;BMP_pressure;BME280_temperature;BME280_humidity;BME280_pressure;Samples;Min_cycle;Max_cycle;Signal;HPM_P1;HPM_P2
2023/12/25 00:01:11;;;;;;;;;;;;;;;;;;6272763;28;19920;-80
2023/12/25 00:04:12;;;;;;;;;;;;;;;;;;6270834;28;19920;-81
2023/12/25 00:07:12;;;;;;;;;;;;;;;;;;6294917;28;20012;-80
2023/12/25 00:10:12;;;;;;;;;;;;;;;;;;6295218;28;20373;-78
2023/12/25 00:13:12;;;;;;;;;;;;;;;;;;6279382;28;19923;-90
2023/12/25 00:16:12;;;;;;;;;;;;;;;;;;6293807;28;20007;-91
2023/12/25 00:19:12;;;;;;;;;;;;;;;;;;6290707;28;19999;-90
2023/12/25 00:22:12;;;;;;;;;;;;;;;;;;6289896;28;20065;-89
2023/12/25 00:25:13;;;;;;;;;;;;;;;;;;6289543;28;19955;-90
2023/12/25 00:28:13;;;;;;;;;;;;;;;;;;6283318;28;19940;-90
2023/12/25 00:31:13;;;;;;;;;;;;;;;;;;6285531;28;19920;-89
2023/12/25 00:34:13;;;;;;;;;;;;;;;;;;6281452;28;19913;-89
2023/12/25 00:37:13;;;;;;;;;;;;;;;;;;6292834;28;20297;-90
2023/12/25 00:40:13;;;;;;;;;;;;;;;;;;6287654;28;20011;-90
2023/12/25 00:43:13;;;;;;;;;;;;;;;;;;6291594;28;19969;-90
2023/12/25 00:46:14;;;;;;;;;;;;;;;;;;6282592;28;19919;-89
2023/12/25 00:49:15;;;;;;;;;;;;;;;;;;6292697;28;19967;-90
2023/12/25 00:52:17;;;;;;;;;;;;;;;;;;6286664;28;19924;-89
2023/12/25 00:55:17;;;;;;;;;;;;;;;;;;6290151;28;19924;-90
2023/12/25 00:58:17;;;;;;;;;;;;;;;;;;6293918;28;19951;-89
2023/12/25 01:01:17;;;;;;;;;;;;;;;;;;6286602;28;19971;-91
2023/12/25 01:04:18;;;;;;;;;;;;;;;;;;6286674;28;19956;-89
2023/12/25 01:07:18;;;;;;;;;;;;;;;;;;6289602;28;19948;-89
2023/12/25 01:10:18;;;;;;;;;;;;;;;;;;6293085;28;20410;-91
2023/12/25 01:13:18;;;;;;;;;;;;;;;;;;6289644;28;19919;-90
2023/12/25 01:16:18;;;;;;;;;;;;;;;;;;6288617;28;19912;-90
2023/12/25 01:19:19;;;;;;;;;;;;;;;;;;6290852;28;19913;-91
2023/12/25 01:22:19;;;;;;;;;;;;;;;;;;6286178;28;19920;-91
2023/12/25 01:25:19;;;;;;;;;;;;;;;;;;6291554;28;19923;-80
2023/12/25 01:28:19;;;;;;;;;;;;;;;;;;6287406;28;19913;-80
2023/12/25 01:31:19;;;;;;;;;;;;;;;;;;6284854;28;19928;-80
2023/12/25 01:34:19;;;;;;;;;;;;;;;;;;6269508;28;19913;-81
2023/12/25 01:37:19;;;;;;;;;;;;;;;;;;6287785;28;19913;-81
2023/12/25 01:40:21;;;;;;;;;;;;;;;;;;6269467;28;19921;-82
2023/12/25 01:43:21;;;;;;;;;;;;;;;;;;6287127;28;20009;-80
2023/12/25 01:46:22;;;;;;;;;;;;;;;;;;6286381;28;19912;-80
2023/12/25 01:49:22;;;;;;;;;;;;;;;;;;6283697;28;19913;-81
2023/12/25 01:52:22;;;;;;;;;;;;;;;;;;6291908;28;19913;-80
2023/12/25 01:55:22;;;;;;;;;;;;;;;;;;6283848;28;20017;-80
2023/12/25 01:58:22;;;;;;;;;;;;;;;;;;6291283;28;19913;-81
2023/12/25 02:01:22;;;;;;;;;;;;;;;;;;6282422;28;19921;-80
2023/12/25 02:04:22;;;;;;;;;;;;;;;;;;6290898;28;19912;-81
2023/12/25 02:07:22;;;;;;;;;;;;;;;;;;6286101;28;20001;-82
2023/12/25 02:10:23;;;;;;;;;;;;;;;;;;6285247;28;20261;-82
2023/12/25 02:13:23;;;;;;;;;;;;;;;;;;6278729;28;20288;-81
2023/12/25 02:16:23;;;;;;;;;;;;;;;;;;6286523;28;19917;-81
2023/12/25 02:19:23;;;;;;;;;;;;;;;;;;6273319;28;20114;-81
2023/12/25 02:22:23;;;;;;;;;;;;;;;;;;6282214;28;19916;-80
2023/12/25 02:25:23;;;;;;;;;;;;;;;;;;6281855;28;19924;-81
2023/12/25 02:28:23;;;;;;;;;;;;;;;;;;6284417;28;19912;-81
2023/12/25 02:31:24;;;;;;;;;;;;;;;;;;6288034;28;20280;-82
2023/12/25 02:34:24;;;;;;;;;;;;;;;;;;6283940;28;19918;-89
2023/12/25 02:37:24;;;;;;;;;;;;;;;;;;6282535;28;19921;-89
2023/12/25 02:40:24;;;;;;;;;;;;;;;;;;6288282;28;19923;-90
2023/12/25 02:43:24;;;;;;;;;;;;;;;;;;6291182;28;19969;-89
2023/12/25 02:46:24;;;;;;;;;;;;;;;;;;6275884;28;19921;-87
2023/12/25 02:49:25;;;;;;;;;;;;;;;;;;6282956;28;19919;-89
2023/12/25 02:52:25;;;;;;;;;;;;;;;;;;6286136;28;20000;-90
2023/12/25 02:55:26;;;;;;;;;;;;;;;;;;6284983;28;20011;-89
2023/12/25 02:58:26;;;;;;;;;;;;;;;;;;6273191;28;20296;-90
2023/12/25 03:01:26;;;;;;;;;;;;;;;;;;6277821;28;19925;-89
2023/12/25 03:04:26;;;;;;;;;;;;;;;;;;6270929;28;19938;-90
2023/12/25 03:07:26;;;;;;;;;;;;;;;;;;6278174;28;20348;-89
2023/12/25 03:10:26;;;;;;;;;;;;;;;;;;6287945;28;19913;-91
2023/12/25 03:13:27;;;;;;;;;;;;;;;;;;6290245;28;19913;-90
2023/12/25 03:16:27;;;;;;;;;;;;;;;;;;6291305;28;19912;-89
2023/12/25 03:19:27;;;;;;;;;;;;;;;;;;6291439;28;19952;-90
2023/12/25 03:22:27;;;;;;;;;;;;;;;;;;6292564;28;19921;-90
2023/12/25 03:25:27;;;;;;;;;;;;;;;;;;6278641;28;19958;-90
2023/12/25 03:28:27;;;;;;;;;;;;;;;;;;6293299;28;19912;-90
2023/12/25 03:31:27;;;;;;;;;;;;;;;;;;6288333;28;19913;-90
2023/12/25 03:34:28;;;;;;;;;;;;;;;;;;6291242;28;19920;-90
2023/12/25 03:37:28;;;;;;;;;;;;;;;;;;6271556;28;19912;-90
2023/12/25 03:40:28;;;;;;;;;;;;;;;;;;6281953;28;19967;-90
2023/12/25 03:43:28;;;;;;;;;;;;;;;;;;6275800;28;19920;-81
2023/12/25 03:46:28;;;;;;;;;;;;;;;;;;6286967;28;19917;-80
2023/12/25 03:49:28;;;;;;;;;;;;;;;;;;6270261;28;19913;-81
2023/12/25 03:52:28;;;;;;;;;;;;;;;;;;6266781;28;19927;-80
2023/12/25 03:55:29;;;;;;;;;;;;;;;;;;6266875;28;19966;-82
2023/12/25 03:58:29;;;;;;;;;;;;;;;;;;6276129;28;20007;-81
2023/12/25 04:01:29;;;;;;;;;;;;;;;;;;6291564;28;19920;-80
2023/12/25 04:04:29;;;;;;;;;;;;;;;;;;6284878;28;19982;-80
2023/12/25 04:07:29;;;;;;;;;;;;;;;;;;6278858;28;19913;-81
2023/12/25 04:10:29;;;;;;;;;;;;;;;;;;6289280;28;19920;-81
2023/12/25 04:13:29;;;;;;;;;;;;;;;;;;6288089;28;19916;-81
2023/12/25 04:16:30;;;;;;;;;;;;;;;;;;6274933;28;19913;-80
2023/12/25 04:19:30;;;;;;;;;;;;;;;;;;6283832;28;19947;-81
2023/12/25 04:22:30;;;;;;;;;;;;;;;;;;6294849;28;19920;-81
2023/12/25 04:25:30;;;;;;;;;;;;;;;;;;6270634;28;19999;-81
2023/12/25 04:28:30;;;;;;;;;;;;;;;;;;6290982;28;20262;-82
2023/12/25 04:31:30;;;;;;;;;;;;;;;;;;6288083;28;19948;-81
2023/12/25 04:34:30;;;;;;;;;;;;;;;;;;6267021;28;19948;-80
2023/12/25 04:37:31;;;;;;;;;;;;;;;;;;6272008;28;19913;-81
2023/12/25 04:40:31;;;;;;;;;;;;;;;;;;6282553;28;19916;-81
2023/12/25 04:43:31;;;;;;;;;;;;;;;;;;6274904;28;20007;-81
2023/12/25 04:46:31;;;;;;;;;;;;;;;;;;6282029;28;19912;-81
2023/12/25 04:49:31;;;;;;;;;;;;;;;;;;6259867;28;19917;-80
2023/12/25 04:52:31;;;;;;;;;;;;;;;;;;6268073;28;19921;-81
2023/12/25 04:55:32;;;;;;;;;;;;;;;;;;6260597;28;19913;-80
2023/12/25 04:58:32;;;;;;;;;;;;;;;;;;6291652;28;19924;-84
2023/12/25 05:01:32;;;;;;;;;;;;;;;;;;6269572;28;19920;-81
2023/12/25 05:04:32;;;;;;;;;;;;;;;;;;6281136;28;19917;-81
2023/12/25 05:07:32;;;;;;;;;;;;;;;;;;6287865;28;19913;-81
2023/12/25 05:10:32;;;;;;;;;;;;;;;;;;6290819;28;19974;-81
2023/12/25 05:13:32;;;;;;;;;;;;;;;;;;6295958;28;20371;-81
2023/12/25 05:16:33;;;;;;;;;;;;;;;;;;6265514;28;19913;-80
2023/12/25 05:19:33;;;;;;;;;;;;;;;;;;6290455;28;19923;-81
2023/12/25 05:22:33;;;;;;;;;;;;;;;;;;6277326;28;19921;-81
2023/12/25 05:25:33;;;;;;;;;;;;;;;;;;6287726;28;19919;-81
2023/12/25 05:28:35;;;;;;;;;;;;;;;;;;6287638;28;21990;-81
2023/12/25 05:31:35;;;;;;;;;;;;;;;;;;6284552;28;20269;-81
2023/12/25 05:34:35;;;;;;;;;;;;;;;;;;6285324;28;19917;-81
2023/12/25 05:37:36;;;;;;;;;;;;;;;;;;6283713;28;19916;-81
2023/12/25 05:40:36;;;;;;;;;;;;;;;;;;6276450;28;19965;-81
2023/12/25 05:43:36;;;;;;;;;;;;;;;;;;6277648;28;20389;-81
2023/12/25 05:46:36;;;;;;;;;;;;;;;;;;6276858;28;20007;-81
2023/12/25 05:49:36;;;;;;;;;;;;;;;;;;6293045;28;19946;-81
2023/12/25 05:52:37;;;;;;;;;;;;;;;;;;6281189;28;19959;-81
2023/12/25 05:55:37;;;;;;;;;;;;;;;;;;6292865;28;19951;-81
2023/12/25 05:58:37;;;;;;;;;;;;;;;;;;6283438;28;20264;-81
2023/12/25 06:01:37;;;;;;;;;;;;;;;;;;6287073;28;19920;-81
2023/12/25 06:04:38;;;;;;;;;;;;;;;;;;6280680;28;19913;-89
2023/12/25 06:07:38;;;;;;;;;;;;;;;;;;6279323;28;20415;-89
2023/12/25 06:10:38;;;;;;;;;;;;;;;;;;6287814;28;19998;-90
2023/12/25 06:13:41;;;;;;;;;;;;;;;;;;6272623;28;19917;-90
2023/12/25 06:16:41;;;;;;;;;;;;;;;;;;6281378;28;19935;-90
2023/12/25 06:19:41;;;;;;;;;;;;;;;;;;6281998;28;20281;-90
2023/12/25 06:22:42;;;;;;;;;;;;;;;;;;6290244;28;20423;-89
2023/12/25 06:25:42;;;;;;;;;;;;;;;;;;6287797;28;19920;-89
2023/12/25 06:28:42;;;;;;;;;;;;;;;;;;6299408;28;19920;-90
2023/12/25 06:31:42;;;;;;;;;;;;;;;;;;6271670;28;19997;-89
2023/12/25 06:34:42;;;;;;;;;;;;;;;;;;6286667;28;19984;-90
2023/12/25 06:37:42;;;;;;;;;;;;;;;;;;6286714;28;19920;-89
2023/12/25 06:40:42;;;;;;;;;;;;;;;;;;6286899;28;19927;-89
2023/12/25 06:43:43;;;;;;;;;;;;;;;;;;6293321;28;19920;-89
2023/12/25 06:46:43;;;;;;;;;;;;;;;;;;6280354;28;19921;-89
2023/12/25 06:49:43;;;;;;;;;;;;;;;;;;6288486;28;19927;-88
2023/12/25 06:52:43;;;;;;;;;;;;;;;;;;6288341;28;20938;-89
2023/12/25 06:55:43;;;;;;;;;;;;;;;;;;6289051;28;19923;-89
2023/12/25 06:58:43;;;;;;;;;;;;;;;;;;6290630;28;19920;-89
2023/12/25 07:01:44;;;;;;;;;;;;;;;;;;6284724;28;19947;-89
2023/12/25 07:04:44;;;;;;;;;;;;;;;;;;6295183;28;20001;-89
2023/12/25 07:07:44;;;;;;;;;;;;;;;;;;6299810;28;19921;-88
2023/12/25 07:10:46;;;;;;;;;;;;;;;;;;6290365;28;19920;-89
2023/12/25 07:13:46;;;;;;;;;;;;;;;;;;6291592;28;20396;-91
2023/12/25 07:16:46;;;;;;;;;;;;;;;;;;6291792;28;19916;-89
2023/12/25 07:19:47;;;;;;;;;;;;;;;;;;6288210;28;19946;-89
2023/12/25 07:22:47;;;;;;;;;;;;;;;;;;6285980;28;20353;-89
2023/12/25 07:25:47;;;;;;;;;;;;;;;;;;6285665;28;20261;-89
2023/12/25 07:28:48;;;;;;;;;;;;;;;;;;6287227;28;20375;-90
2023/12/25 07:31:49;;;;;;;;;;;;;;;;;;6292941;28;20372;-88
2023/12/25 07:34:49;;;;;;;;;;;;;;;;;;6293553;28;19944;-89
2023/12/25 07:37:49;;;;;;;;;;;;;;;;;;6291327;28;20056;-89
2023/12/25 07:40:49;;;;;;;;;;;;;;;;;;6289904;28;19924;-89
2023/12/25 07:43:49;;;;;;;;;;;;;;;;;;6284937;28;19924;-88
2023/12/25 07:46:49;;;;;;;;;;;;;;;;;;6293126;28;20377;-89
2023/12/25 07:49:49;;;;;;;;;;;;;;;;;;6277586;28;19962;-89
2023/12/25 07:52:50;;;;;;;;;;;;;;;;;;6290142;28;19955;-89
2023/12/25 07:55:50;;;;;;;;;;;;;;;;;;6291265;28;19921;-89
2023/12/25 07:58:50;;;;;;;;;;;;;;;;;;6292394;28;20022;-89
2023/12/25 08:01:50;;;;;;;;;;;;;;;;;;6290197;28;20284;-88
2023/12/25 08:04:50;;;;;;;;;;;;;;;;;;6285753;28;20285;-89
2023/12/25 08:07:50;;;;;;;;;;;;;;;;;;6297981;28;19919;-89
2023/12/25 08:10:50;;;;;;;;;;;;;;;;;;6292157;28;20011;-90
2023/12/25 08:13:51;;;;;;;;;;;;;;;;;;6287772;28;20012;-89
2023/12/25 08:16:51;;;;;;;;;;;;;;;;;;6292909;28;20057;-89
2023/12/25 08:19:51;;;;;;;;;;;;;;;;;;6287999;28;20007;-89
2023/12/25 08:22:51;;;;;;;;;;;;;;;;;;6286219;28;19963;-89
2023/12/25 08:25:51;;;;;;;;;;;;;;;;;;6291202;28;19958;-89
2023/12/25 08:28:52;;;;;;;;;;;;;;;;;;6292734;28;19968;-90
2023/12/25 08:31:52;;;;;;;;;;;;;;;;;;6284103;28;20334;-89
2023/12/25 08:34:52;;;;;;;;;;;;;;;;;;6272014;28;19999;-89
2023/12/25 08:37:52;;;;;;;;;;;;;;;;;;6290441;28;20003;-89
2023/12/25 08:40:53;;;;;;;;;;;;;;;;;;6290271;28;20007;-89
2023/12/25 08:43:53;;;;;;;;;;;;;;;;;;6294023;28;20062;-94
2023/12/25 08:46:53;;;;;;;;;;;;;;;;;;6292885;28;19982;-87
2023/12/25 08:49:53;;;;;;;;;;;;;;;;;;6286424;28;19912;-88
2023/12/25 08:52:54;;;;;;;;;;;;;;;;;;6283189;28;19920;-89
2023/12/25 08:55:54;;;;;;;;;;;;;;;;;;6286248;28;19920;-88
2023/12/25 08:58:54;;;;;;;;;;;;;;;;;;6277771;28;19917;-90
2023/12/25 09:01:54;;;;;;;;;;;;;;;;;;6280098;28;20385;-88
2023/12/25 09:04:54;;;;;;;;;;;;;;;;;;6285632;28;19917;-88
2023/12/25 09:07:54;;;;;;;;;;;;;;;;;;6275186;28;20499;-87
2023/12/25 09:10:55;;;;;;;;;;;;;;;;;;6282311;28;19913;-86
2023/12/25 09:13:55;;;;;;;;;;;;;;;;;;6286510;28;19913;-88
2023/12/25 09:16:55;;;;;;;;;;;;;;;;;;6291884;28;19913;-86
2023/12/25 09:19:55;;;;;;;;;;;;;;;;;;6287627;28;19913;-86
2023/12/25 09:22:56;;;;;;;;;;;;;;;;;;6286974;28;19920;-86
2023/12/25 09:25:56;;;;;;;;;;;;;;;;;;6296297;28;19927;-86
2023/12/25 09:28:56;;;;;;;;;;;;;;;;;;6284917;28;20003;-86
2023/12/25 09:31:56;;;;;;;;;;;;;;;;;;6282666;28;20008;-85
2023/12/25 09:34:56;;;;;;;;;;;;;;;;;;6290614;28;20019;-81
2023/12/25 09:37:57;;;;;;;;;;;;;;;;;;6270136;28;20011;-81
2023/12/25 09:40:57;;;;;;;;;;;;;;;;;;6277767;28;19928;-82
2023/12/25 09:43:57;;;;;;;;;;;;;;;;;;6277220;28;19921;-82
2023/12/25 09:46:59;;;;;;;;;;;;;;;;;;6291077;28;19917;-81
2023/12/25 09:49:59;;;;;;;;;;;;;;;;;;6279202;28;20383;-80
2023/12/25 09:52:59;;;;;;;;;;;;;;;;;;6290851;28;19913;-82
2023/12/25 09:55:59;;;;;;;;;;;;;;;;;;6280588;28;19912;-82
2023/12/25 09:58:59;;;;;;;;;;;;;;;;;;6281594;28;19919;-81
2023/12/25 10:01:59;;;;;;;;;;;;;;;;;;6280305;28;20332;-81
2023/12/25 10:04:59;;;;;;;;;;;;;;;;;;6289438;28;22755;-82
2023/12/25 10:08:00;;;;;;;;;;;;;;;;;;6277083;28;20125;-84
2023/12/25 10:11:00;;;;;;;;;;;;;;;;;;6289356;28;20021;-81
2023/12/25 10:14:00;;;;;;;;;;;;;;;;;;6287427;28;19912;-82
2023/12/25 10:17:00;;;;;;;;;;;;;;;;;;6285119;28;19920;-82
2023/12/25 10:20:00;;;;;;;;;;;;;;;;;;6288893;28;19965;-82
2023/12/25 10:23:00;;;;;;;;;;;;;;;;;;6285518;28;19963;-81
2023/12/25 10:26:00;;;;;;;;;;;;;;;;;;6295268;28;20070;-82
2023/12/25 10:29:01;;;;;;;;;;;;;;;;;;6288973;28;19959;-83
2023/12/25 10:32:01;;;;;;;;;;;;;;;;;;6298950;28;20004;-82
2023/12/25 10:35:01;;;;;;;;;;;;;;;;;;6291429;28;20006;-83
2023/12/25 10:38:01;;;;;;;;;;;;;;;;;;6288904;28;19913;-85
2023/12/25 10:41:01;;;;;;;;;;;;;;;;;;6299858;28;19927;-83
2023/12/25 10:44:02;;;;;;;;;;;;;;;;;;6290812;28;19923;-87
2023/12/25 10:47:02;;;;;;;;;;;;;;;;;;6294206;28;20276;-88
2023/12/25 10:50:02;;;;;;;;;;;;;;;;;;6287770;28;19912;-89
2023/12/25 10:53:03;;;;;;;;;;;;;;;;;;6295367;28;19912;-90
2023/12/25 10:56:03;;;;;;;;;;;;;;;;;;6296106;28;19913;-88
2023/12/25 10:59:04;;;;;;;;;;;;;;;;;;6293401;28;19954;-90
2023/12/25 11:02:04;;;;;;;;;;;;;;;;;;6293286;28;19928;-88
2023/12/25 11:05:04;;;;;;;;;;;;;;;;;;6291265;28;20018;-88
2023/12/25 11:08:05;;;;;;;;;;;;;;;;;;6274214;28;19974;-86
2023/12/25 11:11:05;;;;;;;;;;;;;;;;;;6281335;28;20019;-86
2023/12/25 11:14:08;;;;;;;;;;;;;;;;;;6282276;28;20353;-88
2023/12/25 11:17:08;;;;;;;;;;;;;;;;;;6294380;28;20007;-88
2023/12/25 11:20:08;;;;;;;;;;;;;;;;;;6304283;28;19957;-86
2023/12/25 11:23:09;;;;;;;;;;;;;;;;;;6299238;28;19931;-85
2023/12/25 11:26:09;;;;;;;;;;;;;;;;;;6296530;28;19917;-86
2023/12/25 11:29:12;;;;;;;;;;;;;;;;;;6291320;28;19912;-86
2023/12/25 11:32:13;;;;;;;;;;;;;;;;;;6296373;28;19919;-87
2023/12/25 11:35:13;;;;;;;;;;;;;;;;;;6295382;28;19912;-91
2023/12/25 11:38:13;;;;;;;;;;;;;;;;;;6289454;28;19919;-84
2023/12/25 11:41:13;;;;;;;;;;;;;;;;;;6293775;28;19917;-87
2023/12/25 11:44:13;;;;;;;;;;;;;;;;;;6286313;28;20159;-93
2023/12/25 11:47:13;;;;;;;;;;;;;;;;;;6287834;28;20067;-87
2023/12/25 11:50:14;;;;;;;;;;;;;;;;;;6293443;28;19919;-89
2023/12/25 11:53:14;;;;;;;;;;;;;;;;;;6295195;28;19912;-81
2023/12/25 11:56:15;;;;;;;;;;;;;;;;;;6282428;28;19921;-83
2023/12/25 11:59:15;;;;;;;;;;;;;;;;;;6293608;28;19916;-84
2023/12/25 12:02:15;;;;;;;;;;;;;;;;;;6279403;28;19971;-82
2023/12/25 12:05:16;;;;;;;;;;;;;;;;;;6295156;28;19920;-82
2023/12/25 12:08:16;;;;;;;;;;;;;;;;;;6288072;28;19916;-84
2023/12/25 12:11:16;;;;;;;;;;;;;;;;;;6295068;28;19924;-84
2023/12/25 12:14:16;;;;;;;;;;;;;;;;;;6273160;28;19921;-84
2023/12/25 12:17:17;;;;;;;;;;;;;;;;;;6283771;28;19920;-83
2023/12/25 12:20:17;;;;;;;;;;;;;;;;;;6286884;28;20381;-84
2023/12/25 12:23:18;;;;;;;;;;;;;;;;;;6283445;28;19968;-85
2023/12/25 12:26:18;;;;;;;;;;;;;;;;;;6266009;28;19920;-84
2023/12/25 12:29:18;;;;;;;;;;;;;;;;;;6286584;28;19921;-84
2023/12/25 12:32:18;;;;;;;;;;;;;;;;;;6283400;28;19913;-84
2023/12/25 12:35:18;;;;;;;;;;;;;;;;;;6288753;28;19920;-84
2023/12/25 12:38:18;;;;;;;;;;;;;;;;;;6286844;28;19912;-84
2023/12/25 12:41:19;;;;;;;;;;;;;;;;;;6281680;28;20360;-84
2023/12/25 12:44:19;;;;;;;;;;;;;;;;;;6283346;28;20394;-84
2023/12/25 12:47:19;;;;;;;;;;;;;;;;;;6286820;28;19955;-83
2023/12/25 12:50:22;;;;;;;;;;;;;;;;;;6285868;28;20017;-84
2023/12/25 12:53:22;;;;;;;;;;;;;;;;;;6290524;28;20279;-84
2023/12/25 12:56:22;;;;;;;;;;;;;;;;;;6285316;28;20281;-84
2023/12/25 12:59:22;;;;;;;;;;;;;;;;;;6281703;28;20284;-86
2023/12/25 13:02:23;;;;;;;;;;;;;;;;;;6248469;28;19921;-85
2023/12/25 13:05:23;;;;;;;;;;;;;;;;;;6261582;28;20399;-86
2023/12/25 13:08:24;;;;;;;;;;;;;;;;;;6258722;28;20111;-86
2023/12/25 13:11:25;;;;;;;;;;;;;;;;;;6254536;28;19967;-86
2023/12/25 13:14:25;;;;;;;;;;;;;;;;;;6240441;28;19923;-86
2023/12/25 13:17:25;;;;;;;;;;;;;;;;;;6248873;28;20007;-86
2023/12/25 13:20:26;;;;;;;;;;;;;;;;;;6258661;28;20385;-85
2023/12/25 13:23:26;;;;;;;;;;;;;;;;;;6250539;28;20380;-86
2023/12/25 13:26:26;;;;;;;;;;;;;;;;;;6239114;28;19917;-86
2023/12/25 13:29:26;;;;;;;;;;;;;;;;;;6259734;28;20466;-86
2023/12/25 13:32:27;;;;;;;;;;;;;;;;;;6260224;28;20279;-84
2023/12/25 13:35:27;;;;;;;;;;;;;;;;;;6262143;28;20312;-85
2023/12/25 13:38:27;;;;;;;;;;;;;;;;;;6260984;28;19968;-86
2023/12/25 13:41:27;;;;;;;;;;;;;;;;;;6260140;28;19964;-84
2023/12/25 13:44:29;;;;;;;;;;;;;;;;;;6258811;28;20032;-85
2023/12/25 13:47:29;;;;;;;;;;;;;;;;;;6265651;28;19925;-86
2023/12/25 13:50:29;;;;;;;;;;;;;;;;;;6260247;28;19971;-84
2023/12/25 13:53:30;;;;;;;;;;;;;;;;;;6252850;28;19916;-91
2023/12/25 13:56:30;;;;;;;;;;;;;;;;;;6239711;28;19917;-87
2023/12/25 13:59:30;;;;;;;;;;;;;;;;;;6262902;28;19913;-90
2023/12/25 14:02:30;;;;;;;;;;;;;;;;;;6267206;28;19928;-92
2023/12/25 14:05:30;;;;;;;;;;;;;;;;;;6282330;28;19917;-91
2023/12/25 14:08:30;;;;;;;;;;;;;;;;;;6284799;28;19920;-90
2023/12/25 14:11:31;;;;;;;;;;;;;;;;;;6287255;28;19970;-91
2023/12/25 14:14:31;;;;;;;;;;;;;;;;;;6266459;28;19913;-83
2023/12/25 14:17:31;;;;;;;;;;;;;;;;;;6270833;28;19913;-82
2023/12/25 14:20:31;;;;;;;;;;;;;;;;;;6286312;28;19958;-82
2023/12/25 14:23:31;;;;;;;;;;;;;;;;;;6280155;28;19927;-82
2023/12/25 14:26:31;;;;;;;;;;;;;;;;;;6283239;28;20011;-81
2023/12/25 14:29:32;;;;;;;;;;;;;;;;;;6282593;28;20021;-81
2023/12/25 14:32:32;;;;;;;;;;;;;;;;;;6276208;28;20044;-80
2023/12/25 14:35:32;;;;;;;;;;;;;;;;;;6285142;28;20393;-80
2023/12/25 14:38:32;;;;;;;;;;;;;;;;;;6284465;28;19916;-78
2023/12/25 14:41:33;;;;;;;;;;;;;;;;;;6280375;28;19936;-84
2023/12/25 14:44:33;;;;;;;;;;;;;;;;;;6276540;28;19991;-82
2023/12/25 14:47:33;;;;;;;;;;;;;;;;;;6277852;28;19921;-82
2023/12/25 14:50:34;;;;;;;;;;;;;;;;;;6287696;28;19919;-81
2023/12/25 14:53:34;;;;;;;;;;;;;;;;;;6283691;28;20015;-84
2023/12/25 14:56:35;;;;;;;;;;;;;;;;;;6281264;28;19912;-84
2023/12/25 14:59:35;;;;;;;;;;;;;;;;;;6280879;28;19916;-84
2023/12/25 15:02:36;;;;;;;;;;;;;;;;;;6279909;28;19928;-84
2023/12/25 15:05:36;;;;;;;;;;;;;;;;;;6277876;28;20393;-84
2023/12/25 15:08:36;;;;;;;;;;;;;;;;;;6278839;28;19920;-84
2023/12/25 15:11:37;;;;;;;;;;;;;;;;;;6280821;28;19951;-83
2023/12/25 15:14:38;;;;;;;;;;;;;;;;;;6287322;28;19928;-85
2023/12/25 15:17:38;;;;;;;;;;;;;;;;;;6280965;28;19940;-84
2023/12/25 15:20:39;;;;;;;;;;;;;;;;;;6276246;28;19912;-83
2023/12/25 15:23:39;;;;;;;;;;;;;;;;;;6274866;28;19966;-89
2023/12/25 15:26:40;;;;;;;;;;;;;;;;;;6277899;28;20405;-75
2023/12/25 15:29:40;;;;;;;;;;;;;;;;;;6283435;28;19920;-84
2023/12/25 15:32:40;;;;;;;;;;;;;;;;;;5578697;28;10000728;-84
2023/12/25 15:35:40;;;;;;;;;;;;;;;;;;6285322;28;19920;-84
2023/12/25 15:38:40;;;;;;;;;;;;;;;;;;6292197;28;20280;-81
2023/12/25 15:41:41;;;;;;;;;;;;;;;;;;6284293;28;20273;-81
2023/12/25 15:44:41;;;;;;;;;;;;;;;;;;6285452;28;19995;-81
2023/12/25 15:47:41;;;;;;;;;;;;;;;;;;6287326;28;19912;-81
2023/12/25 15:50:41;;;;;;;;;;;;;;;;;;6285763;28;19913;-82
2023/12/25 15:53:41;;;;;;;;;;;;;;;;;;6292935;28;19958;-81
2023/12/25 15:56:41;;;;;;;;;;;;;;;;;;6286320;28;19912;-81
2023/12/25 15:59:41;;;;;;;;;;;;;;;;;;6289733;28;20399;-81
2023/12/25 16:02:42;;;;;;;;;;;;;;;;;;6284658;28;19975;-81
2023/12/25 16:05:42;;;;;;;;;;;;;;;;;;6283270;28;20329;-81
2023/12/25 16:08:42;;;;;;;;;;;;;;;;;;6283771;28;19913;-82
2023/12/25 16:11:43;;;;;;;;;;;;;;;;;;6276724;28;19969;-81
2023/12/25 16:14:45;;;;;;;;;;;;;;;;;;6291733;28;19971;-81
2023/12/25 16:17:47;;;;;;;;;;;;;;;;;;6280853;28;20321;-81
2023/12/25 16:20:47;;;;;;;;;;;;;;;;;;6280842;28;19921;-81
2023/12/25 16:23:47;;;;;;;;;;;;;;;;;;6288095;28;19947;-81
2023/12/25 16:26:48;;;;;;;;;;;;;;;;;;6280174;28;19971;-80
2023/12/25 16:29:48;;;;;;;;;;;;;;;;;;6264906;28;19949;-81
2023/12/25 16:32:48;;;;;;;;;;;;;;;;;;6282735;28;19913;-80
2023/12/25 16:35:48;;;;;;;;;;;;;;;;;;6291104;28;20297;-78
2023/12/25 16:38:48;;;;;;;;;;;;;;;;;;6279899;28;19917;-79
2023/12/25 16:41:49;;;;;;;;;;;;;;;;;;6286016;28;19920;-78
2023/12/25 16:44:49;;;;;;;;;;;;;;;;;;6277626;28;19956;-78
2023/12/25 16:47:49;;;;;;;;;;;;;;;;;;6286518;28;20008;-79
2023/12/25 16:50:49;;;;;;;;;;;;;;;;;;6290349;28;20003;-78
2023/12/25 16:53:49;;;;;;;;;;;;;;;;;;6286222;28;20007;-78
2023/12/25 16:56:49;;;;;;;;;;;;;;;;;;6282603;28;20000;-78
2023/12/25 16:59:49;;;;;;;;;;;;;;;;;;6286323;28;19965;-78
2023/12/25 17:02:50;;;;;;;;;;;;;;;;;;6253730;28;19921;-78
2023/12/25 17:05:50;;;;;;;;;;;;;;;;;;6264649;28;20285;-78
2023/12/25 17:08:52;;;;;;;;;;;;;;;;;;6258031;28;20008;-78
2023/12/25 17:11:53;;;;;;;;;;;;;;;;;;6260400;28;20141;-79
2023/12/25 17:14:53;;;;;;;;;;;;;;;;;;6254992;28;19968;-78
2023/12/25 17:17:53;;;;;;;;;;;;;;;;;;6251895;28;19916;-78
2023/12/25 17:20:53;;;;;;;;;;;;;;;;;;6255023;28;19913;-78
2023/12/25 17:23:53;;;;;;;;;;;;;;;;;;6252899;28;19924;-78
2023/12/25 17:26:53;;;;;;;;;;;;;;;;;;6251345;28;19967;-78
2023/12/25 17:29:53;;;;;;;;;;;;;;;;;;6252022;28;19917;-78
2023/12/25 17:32:54;;;;;;;;;;;;;;;;;;6254740;28;19913;-78
2023/12/25 17:35:55;;;;;;;;;;;;;;;;;;6255163;28;19913;-78
2023/12/25 17:38:55;;;;;;;;;;;;;;;;;;6267598;28;20253;-78
2023/12/25 17:41:55;;;;;;;;;;;;;;;;;;6251865;28;20384;-78
2023/12/25 17:44:55;;;;;;;;;;;;;;;;;;6245978;28;20000;-80
2023/12/25 17:47:56;;;;;;;;;;;;;;;;;;6259038;28;19921;-80
2023/12/25 17:50:56;;;;;;;;;;;;;;;;;;6262981;28;19991;-80
2023/12/25 17:53:56;;;;;;;;;;;;;;;;;;6265450;28;19939;-79
2023/12/25 17:56:56;;;;;;;;;;;;;;;;;;6265357;28;19920;-80
2023/12/25 17:59:57;;;;;;;;;;;;;;;;;;6256041;28;19913;-80
2023/12/25 18:02:57;;;;;;;;;;;;;;;;;;6246854;28;19921;-80
2023/12/25 18:05:58;;;;;;;;;;;;;;;;;;6258625;28;19912;-80
2023/12/25 18:08:58;;;;;;;;;;;;;;;;;;6261721;28;19923;-80
2023/12/25 18:11:58;;;;;;;;;;;;;;;;;;6274979;28;19924;-81
2023/12/25 18:14:58;;;;;;;;;;;;;;;;;;6266473;28;19913;-80
2023/12/25 18:17:58;;;;;;;;;;;;;;;;;;6256965;28;19916;-80
2023/12/25 18:20:59;;;;;;;;;;;;;;;;;;6260899;28;19924;-80
2023/12/25 18:23:59;;;;;;;;;;;;;;;;;;6262522;28;20445;-81
2023/12/25 18:26:59;;;;;;;;;;;;;;;;;;6266165;28;19912;-80
2023/12/25 18:29:59;;;;;;;;;;;;;;;;;;6262106;28;19912;-81
2023/12/25 18:32:59;;;;;;;;;;;;;;;;;;6277720;28;19924;-80
2023/12/25 18:35:59;;;;;;;;;;;;;;;;;;6256959;28;19913;-80
2023/12/25 18:39:00;;;;;;;;;;;;;;;;;;6262342;28;19913;-81
2023/12/25 18:42:00;;;;;;;;;;;;;;;;;;6257277;28;19943;-80
2023/12/25 18:45:01;;;;;;;;;;;;;;;;;;6255286;28;20006;-81
2023/12/25 18:48:01;;;;;;;;;;;;;;;;;;6280265;28;19919;-80
2023/12/25 18:51:01;;;;;;;;;;;;;;;;;;6263486;28;19966;-81
2023/12/25 18:54:02;;;;;;;;;;;;;;;;;;6262247;28;19932;-80
2023/12/25 18:57:02;;;;;;;;;;;;;;;;;;6263590;28;19944;-80
2023/12/25 19:00:03;;;;;;;;;;;;;;;;;;6274788;28;20385;-80
2023/12/25 19:03:03;;;;;;;;;;;;;;;;;;6279296;28;19929;-85
2023/12/25 19:06:03;;;;;;;;;;;;;;;;;;6296941;28;19924;-85
2023/12/25 19:09:03;;;;;;;;;;;;;;;;;;6298022;28;20406;-87
2023/12/25 19:12:03;;;;;;;;;;;;;;;;;;6294480;28;20325;-87
2023/12/25 19:15:04;;;;;;;;;;;;;;;;;;6283317;28;20015;-87
2023/12/25 19:18:04;;;;;;;;;;;;;;;;;;6290806;28;19913;-87
2023/12/25 19:21:04;;;;;;;;;;;;;;;;;;6287332;28;19928;-84
2023/12/25 19:24:05;;;;;;;;;;;;;;;;;;6270778;28;19913;-83
2023/12/25 19:27:07;;;;;;;;;;;;;;;;;;6278341;28;20003;-84
2023/12/25 19:30:07;;;;;;;;;;;;;;;;;;6282034;28;20122;-82
2023/12/25 19:33:07;;;;;;;;;;;;;;;;;;6291252;28;19952;-83
2023/12/25 19:36:07;;;;;;;;;;;;;;;;;;6284672;28;20005;-84
2023/12/25 19:39:07;;;;;;;;;;;;;;;;;;6294340;28;19912;-83
2023/12/25 19:42:08;;;;;;;;;;;;;;;;;;6286454;28;19928;-83
2023/12/25 19:45:08;;;;;;;;;;;;;;;;;;6268034;28;20361;-82
2023/12/25 19:48:09;;;;;;;;;;;;;;;;;;6284431;28;20349;-83
2023/12/25 19:51:09;;;;;;;;;;;;;;;;;;6276031;28;19917;-84
2023/12/25 19:54:09;;;;;;;;;;;;;;;;;;6290401;28;19920;-84
2023/12/25 19:57:09;;;;;;;;;;;;;;;;;;6268678;28;19920;-82
2023/12/25 20:00:09;;;;;;;;;;;;;;;;;;6290050;28;19916;-82
2023/12/25 20:03:09;;;;;;;;;;;;;;;;;;6271088;28;19928;-83
2023/12/25 20:06:09;;;;;;;;;;;;;;;;;;6280407;28;19917;-82
2023/12/25 20:09:10;;;;;;;;;;;;;;;;;;6260722;28;19947;-82
2023/12/25 20:12:13;;;;;;;;;;;;;;;;;;6285501;28;19955;-82
2023/12/25 20:15:13;;;;;;;;;;;;;;;;;;6287196;28;19920;-80
2023/12/25 20:18:13;;;;;;;;;;;;;;;;;;6286746;28;19992;-81
2023/12/25 20:21:13;;;;;;;;;;;;;;;;;;6281228;28;19978;-81
2023/12/25 20:24:13;;;;;;;;;;;;;;;;;;6267862;28;19916;-81
2023/12/25 20:27:14;;;;;;;;;;;;;;;;;;6290462;28;19920;-80
2023/12/25 20:30:14;;;;;;;;;;;;;;;;;;6285627;28;19921;-81